createdAt,value
2022-07-25T01:09:22.400Z,61.94
2022-07-25T01:11:49.929Z,61.19
2022-07-25T01:14:17.374Z,61.64
2022-07-25T01:16:47.558Z,64.03
2022-07-25T01:19:23.903Z,64.48
2022-07-25T01:21:51.591Z,65.89
2022-07-25T01:24:19.323Z,67.32
2022-07-25T01:26:49.690Z,66.02
2022-07-25T01:29:19.955Z,66.08
2022-07-25T01:31:51.286Z,66.06
2022-07-25T01:34:24.380Z,65.86
2022-07-25T01:36:56.325Z,67.15
2022-07-25T01:39:24.163Z,66.04
2022-07-25T01:41:52.968Z,66.27
2022-07-25T01:44:20.562Z,65.75
2022-07-25T01:46:50.591Z,67.63
2022-07-25T01:49:19.998Z,65.95
2022-07-25T01:51:47.585Z,64.94
2022-07-25T01:54:15.815Z,66.16
2022-07-25T01:56:45.936Z,64.98
2022-07-25T01:59:15.940Z,65.15
2022-07-25T02:01:43.691Z,65.95
2022-07-25T02:04:15.677Z,67.44
2022-07-25T02:06:43.166Z,66.97
2022-07-25T02:09:10.807Z,67.59
2022-07-25T02:11:38.307Z,66.83
2022-07-25T02:14:05.951Z,68.58
2022-07-25T02:16:33.729Z,68.80
2022-07-25T02:19:01.152Z,69.44
2022-07-25T02:21:29.079Z,72.37
2022-07-25T02:23:56.522Z,72.24
2022-07-25T02:26:24.114Z,72.97
2022-07-25T02:29:14.861Z,73.61
2022-07-25T03:31:57.444Z,72.26
2022-07-25T03:34:25.059Z,68.27
2022-07-25T03:36:52.478Z,68.01
2022-07-25T03:39:20.738Z,69.15
2022-07-25T03:41:53.208Z,67.46
2022-07-25T03:44:21.127Z,70.40
2022-07-25T03:46:56.265Z,72.12
2022-07-25T03:49:39.768Z,71.68
2022-07-25T04:16:48.337Z,75.21
2022-07-25T04:19:19.989Z,76.68
2022-07-25T04:21:47.414Z,74.87
2022-07-25T04:25:18.063Z,74.35
2022-07-25T04:27:45.586Z,76.11
2022-07-25T04:30:13.435Z,75.81
2022-07-25T04:32:53.780Z,75.63
2022-07-25T04:35:24.287Z,75.40
2022-07-25T04:37:51.694Z,75.76
2022-07-25T04:40:19.158Z,69.90
2022-07-25T04:42:46.560Z,71.89
2022-07-25T04:45:14.281Z,71.60
2022-07-25T04:47:46.617Z,72.31
2022-07-25T04:50:14.145Z,72.85
2022-07-25T04:52:41.782Z,70.23
2022-07-25T04:55:09.399Z,74.52
2022-07-25T04:57:37.390Z,68.31
2022-07-25T05:00:06.439Z,69.34
2022-07-25T05:02:40.381Z,68.43
2022-07-25T05:05:21.122Z,70.13
2022-07-25T05:34:05.067Z,65.74
2022-07-25T05:36:46.940Z,63.86
2022-07-25T06:07:32.339Z,53.56
2022-07-25T06:10:02.121Z,55.23
2022-07-25T06:43:50.373Z,39.22
2022-07-25T06:46:38.898Z,40.15
2022-07-25T07:37:43.211Z,34.77
2022-07-25T07:40:30.795Z,32.81
2022-07-25T07:43:09.734Z,36.99
2022-07-25T07:45:54.268Z,34.65
2022-07-25T07:48:37.385Z,34.15
2022-07-25T07:51:13.534Z,34.93
2022-07-25T07:54:04.031Z,33.79
2022-07-25T08:01:52.402Z,32.84
2022-07-25T08:04:49.546Z,29.62
2022-07-25T08:45:15.889Z,29.30
2022-07-25T08:48:23.133Z,28.95
2022-07-25T08:54:04.943Z,27.18
2022-07-25T08:56:35.263Z,25.68
2022-07-25T08:59:03.583Z,27.41
2022-07-25T09:01:34.733Z,27.19
2022-07-25T09:04:07.111Z,27.92
2022-07-25T09:06:36.732Z,28.53
2022-07-25T09:09:08.685Z,29.77
2022-07-25T09:11:39.913Z,27.31
2022-07-25T09:14:14.912Z,24.84
2022-07-25T09:16:44.367Z,26.98
2022-07-25T09:19:14.805Z,28.29
2022-07-25T09:21:43.224Z,27.14
2022-07-25T09:24:18.868Z,26.23
2022-07-25T09:27:02.080Z,24.58
2022-07-25T09:29:30.970Z,25.00
2022-07-25T09:32:02.039Z,23.76
2022-07-25T09:34:31.079Z,24.92
2022-07-25T09:36:58.642Z,23.49
2022-07-25T09:39:46.091Z,26.19
2022-07-25T09:42:29.017Z,28.03
2022-07-25T09:45:13.005Z,28.38
2022-07-25T09:47:57.575Z,26.88
2022-07-25T09:50:25.652Z,25.54
2022-07-25T09:52:55.029Z,24.30
2022-07-25T09:55:26.019Z,25.46
2022-07-25T09:57:53.616Z,26.02
2022-07-25T10:00:24.367Z,24.41
2022-07-25T10:02:59.193Z,25.46
2022-07-25T10:05:39.640Z,29.33
2022-07-25T10:08:08.191Z,27.51
2022-07-25T10:10:41.148Z,29.26
2022-07-25T10:13:17.124Z,29.13
2022-07-25T10:15:47.071Z,29.66
2022-07-25T10:18:17.851Z,29.51
2022-07-25T10:20:48.255Z,30.59
2022-07-25T10:23:19.925Z,28.72
2022-07-25T10:25:49.263Z,31.18
2022-07-25T10:28:18.406Z,28.84
2022-07-25T10:30:45.858Z,30.08
2022-07-25T10:33:18.903Z,30.00
2022-07-25T10:35:48.422Z,33.98
2022-07-25T10:38:23.821Z,29.86
2022-07-25T10:40:53.233Z,31.97
2022-07-25T10:43:48.535Z,32.19
2022-07-25T10:46:20.803Z,29.34
2022-07-25T10:48:57.371Z,28.19
2022-07-25T10:51:30.679Z,32.22
2022-07-25T10:54:01.106Z,27.18
2022-07-25T10:56:32.656Z,30.11
2022-07-25T10:59:00.971Z,30.38
2022-07-25T11:01:29.686Z,32.05
2022-07-25T11:04:02.456Z,27.60
2022-07-25T11:06:39.732Z,28.05
2022-07-25T11:09:19.234Z,27.94
2022-07-25T11:11:52.222Z,29.30
2022-07-25T11:14:27.102Z,26.19
2022-07-25T11:16:56.222Z,25.60
2022-07-25T11:19:25.075Z,30.56
2022-07-25T11:22:01.580Z,28.97
2022-07-25T11:24:45.193Z,29.70
2022-07-25T11:27:13.857Z,27.81
2022-07-25T11:29:41.701Z,27.23
2022-07-25T11:32:11.030Z,29.23
2022-07-25T11:34:47.973Z,28.69
2022-07-25T11:37:15.694Z,26.42
2022-07-25T11:39:44.635Z,29.88
2022-07-25T11:42:16.543Z,28.81
2022-07-25T11:44:48.420Z,30.15
2022-07-25T11:47:23.332Z,29.95
2022-07-25T11:49:52.625Z,29.65
2022-07-25T11:52:21.725Z,36.52
2022-07-25T11:54:52.694Z,32.55
2022-07-25T11:57:20.844Z,31.52
2022-07-25T11:59:48.207Z,29.29
2022-07-25T12:02:22.485Z,28.83
2022-07-25T12:04:56.852Z,28.62
2022-07-25T12:07:36.027Z,31.49
2022-07-25T12:10:05.692Z,30.71
2022-07-25T12:12:50.319Z,30.84
2022-07-25T12:15:19.949Z,29.60
2022-07-25T12:17:47.534Z,29.46
2022-07-25T12:20:23.071Z,31.81
2022-07-25T12:22:54.426Z,33.88
2022-07-25T12:25:21.776Z,33.01
2022-07-25T12:27:49.998Z,32.07
2022-07-25T12:30:18.741Z,29.25
2022-07-25T12:32:46.119Z,31.55
2022-07-25T12:35:14.461Z,32.81
2022-07-25T12:37:42.494Z,33.74
2022-07-25T12:40:10.763Z,32.75
2022-07-25T12:42:38.122Z,32.52
2022-07-25T12:45:05.836Z,32.33
2022-07-25T12:47:37.545Z,32.44
2022-07-25T12:50:05.838Z,30.74
2022-07-25T12:52:33.547Z,30.93
2022-07-25T12:55:03.833Z,32.23
2022-07-25T12:57:31.380Z,35.50
2022-07-25T12:59:58.992Z,32.06
2022-07-25T13:02:27.721Z,32.56
2022-07-25T13:04:55.062Z,32.76
2022-07-25T13:07:22.383Z,32.08
2022-07-25T13:09:49.753Z,33.24
2022-07-25T13:12:17.140Z,35.69
2022-07-25T13:14:44.791Z,33.93
2022-07-25T13:17:12.171Z,33.60
2022-07-25T13:19:39.706Z,32.10
2022-07-25T13:22:07.527Z,30.67
2022-07-25T13:24:35.091Z,31.51
2022-07-25T13:27:06.220Z,32.21
2022-07-25T13:29:34.171Z,32.79
2022-07-25T13:32:02.310Z,32.53
2022-07-25T13:34:30.849Z,31.30
2022-07-25T13:36:58.586Z,33.67
2022-07-25T13:39:27.186Z,32.84
2022-07-25T13:41:54.658Z,33.13
2022-07-25T13:44:24.951Z,34.57
2022-07-25T13:46:55.125Z,32.53
2022-07-25T13:49:22.519Z,32.23
2022-07-25T13:51:49.977Z,33.24
2022-07-25T13:54:17.328Z,34.49
2022-07-25T13:56:44.917Z,33.66
2022-07-25T13:59:16.104Z,34.60
2022-07-25T14:01:48.215Z,35.84
2022-07-25T14:04:20.188Z,35.62
2022-07-25T14:06:51.970Z,36.22
2022-07-25T14:09:22.258Z,34.48
2022-07-25T14:11:51.877Z,36.01
2022-07-25T14:14:19.588Z,35.14
2022-07-25T14:16:54.060Z,36.13
2022-07-25T14:19:21.530Z,35.36
2022-07-25T14:21:51.336Z,35.97
2022-07-25T14:24:18.680Z,35.49
2022-07-25T14:26:46.237Z,36.95
2022-07-25T14:29:13.814Z,35.41
2022-07-25T14:31:41.319Z,36.10
2022-07-25T14:34:08.911Z,37.10
2022-07-25T14:36:41.191Z,35.80
2022-07-25T14:39:11.223Z,35.14
2022-07-25T14:41:40.549Z,36.02
2022-07-25T14:44:08.331Z,35.01
2022-07-25T14:46:35.814Z,36.02
2022-07-25T14:49:03.629Z,36.03
2022-07-25T14:51:31.089Z,36.50
2022-07-25T14:53:58.699Z,38.01
2022-07-25T14:56:26.049Z,35.74
2022-07-25T14:58:53.483Z,36.60
2022-07-25T15:01:24.393Z,35.99
2022-07-25T15:03:56.125Z,36.01
2022-07-25T15:06:27.379Z,35.18
2022-07-25T15:08:56.620Z,36.81
2022-07-25T15:11:27.344Z,36.93
2022-07-25T15:13:58.122Z,37.12
2022-07-25T15:16:33.135Z,36.52
2022-07-25T15:19:16.462Z,36.47
2022-07-25T15:21:51.073Z,36.62
2022-07-25T15:25:06.804Z,36.67
2022-07-25T15:27:27.374Z,38.35
2022-07-25T15:29:56.143Z,38.81
2022-07-25T15:32:27.489Z,37.77
2022-07-25T15:34:58.215Z,37.53
2022-07-25T15:37:25.655Z,38.78
2022-07-25T15:39:53.036Z,38.63
2022-07-25T15:42:28.577Z,38.48
2022-07-25T15:45:22.108Z,37.31
2022-07-25T15:47:47.586Z,37.80
2022-07-25T15:50:22.531Z,37.59
2022-07-25T15:52:53.033Z,37.79
2022-07-25T15:55:20.551Z,35.13
2022-07-25T15:57:48.037Z,37.17
2022-07-25T16:00:15.513Z,34.60
2022-07-25T16:02:42.926Z,35.03
2022-07-25T16:05:10.386Z,36.97
2022-07-25T16:07:37.766Z,34.70
2022-07-25T16:10:05.433Z,35.56
2022-07-25T16:12:32.898Z,36.00
2022-07-25T16:15:02.500Z,35.69
2022-07-25T16:17:30.527Z,36.25
2022-07-25T16:19:58.088Z,35.47
2022-07-25T16:22:25.566Z,35.52
2022-07-25T16:25:01.290Z,35.81
2022-07-25T16:27:28.900Z,35.70
2022-07-25T16:29:57.158Z,35.74
2022-07-25T16:32:24.742Z,37.31
2022-07-25T16:34:54.385Z,37.29
2022-07-25T16:37:22.099Z,37.13
2022-07-25T16:39:49.547Z,37.52
2022-07-25T16:42:16.908Z,37.24
2022-07-25T16:44:52.276Z,37.31
2022-07-25T16:47:19.697Z,37.44
2022-07-25T16:49:47.041Z,36.83
2022-07-25T16:52:16.947Z,37.73
2022-07-25T16:54:55.880Z,37.32
2022-07-25T16:57:24.963Z,37.65
2022-07-25T16:59:53.598Z,37.53
2022-07-25T17:02:24.823Z,39.24
2022-07-25T17:04:55.071Z,36.96
2022-07-25T17:07:22.421Z,37.16
2022-07-25T17:09:49.731Z,37.89
2022-07-25T17:12:17.555Z,37.89
2022-07-25T17:14:45.220Z,37.24
2022-07-25T17:17:15.506Z,37.82
2022-07-25T17:19:43.052Z,38.58
2022-07-25T17:22:10.499Z,38.58
2022-07-25T17:24:38.291Z,38.37
2022-07-25T17:27:06.634Z,39.70
2022-07-25T17:29:35.714Z,39.62
2022-07-25T17:32:05.904Z,38.79
2022-07-25T17:34:33.244Z,38.70
2022-07-25T17:37:02.957Z,40.44
2022-07-25T17:39:30.698Z,39.39
2022-07-25T17:41:58.050Z,40.65
2022-07-25T17:44:25.517Z,41.26
2022-07-25T17:46:53.607Z,41.98
2022-07-25T17:49:21.741Z,40.60
2022-07-25T17:51:52.306Z,41.36
2022-07-25T17:54:19.566Z,42.59
2022-07-25T17:56:49.225Z,42.41
2022-07-25T17:59:16.478Z,41.79
2022-07-25T18:01:43.841Z,42.32
2022-07-25T18:04:11.694Z,42.35
2022-07-25T18:06:39.148Z,45.10
2022-07-25T18:09:07.178Z,45.48
2022-07-25T18:11:34.412Z,45.92
2022-07-25T18:14:01.656Z,47.12
2022-07-25T18:16:29.016Z,48.31
2022-07-25T18:18:56.364Z,46.56
2022-07-25T18:21:24.523Z,49.19
2022-07-25T18:23:52.275Z,46.94
2022-07-25T18:26:20.582Z,46.67
2022-07-25T18:28:48.009Z,49.66
2022-07-25T18:31:15.432Z,50.80
2022-07-25T18:33:42.732Z,52.24
2022-07-25T18:36:12.438Z,52.50
2022-07-25T18:38:39.949Z,52.45
2022-07-25T18:43:56.316Z,52.26
2022-07-25T18:46:24.548Z,52.28
2022-07-25T18:48:52.446Z,52.00
2022-07-25T18:51:21.070Z,51.94
2022-07-25T18:53:48.851Z,51.68
2022-07-25T18:56:16.800Z,51.15
2022-07-25T18:58:44.134Z,50.73
2022-07-25T19:01:11.419Z,51.30
2022-07-25T19:03:40.180Z,51.96
2022-07-25T19:06:08.077Z,52.06
2022-07-25T19:08:35.675Z,50.95
2022-07-25T19:11:03.289Z,52.37
2022-07-25T19:13:48.986Z,52.62
2022-07-25T19:16:17.419Z,51.98
2022-07-25T19:18:45.219Z,53.28
2022-07-25T19:21:12.556Z,52.41
2022-07-25T19:23:39.910Z,54.56
2022-07-25T19:26:07.504Z,54.38
2022-07-25T19:28:37.637Z,53.49
2022-07-25T19:31:05.230Z,53.69
2022-07-25T19:33:36.196Z,54.10
2022-07-25T19:36:04.517Z,52.69
2022-07-25T19:38:32.418Z,53.00
2022-07-25T19:41:00.030Z,54.78
2022-07-25T19:43:27.410Z,54.54
2022-07-25T19:45:54.782Z,55.24
2022-07-25T19:48:25.551Z,53.41
2022-07-25T19:50:55.941Z,52.61
2022-07-25T19:53:28.342Z,54.36
2022-07-25T19:55:56.135Z,54.37
2022-07-25T19:58:23.479Z,54.41
2022-07-25T20:00:50.978Z,56.17
2022-07-25T20:03:23.341Z,56.85
2022-07-25T20:05:51.202Z,55.69
2022-07-25T20:08:18.938Z,53.82
2022-07-25T20:10:47.462Z,55.01
2022-07-25T20:13:14.899Z,56.87
2022-07-25T20:15:42.338Z,55.64
2022-07-25T20:18:16.026Z,56.66
2022-07-25T20:20:46.698Z,56.26
2022-07-25T20:23:14.107Z,56.69
2022-07-25T20:25:41.593Z,57.50
2022-07-25T20:28:09.286Z,56.54
2022-07-25T20:30:36.696Z,56.63
2022-07-25T20:33:08.029Z,57.29
2022-07-25T20:35:37.684Z,57.50
2022-07-25T20:38:09.246Z,57.16
2022-07-25T20:40:40.492Z,56.99
2022-07-25T20:43:09.564Z,54.15
2022-07-25T20:45:37.261Z,56.57
2022-07-25T20:48:05.492Z,57.93
2022-07-25T20:50:32.979Z,57.60
2022-07-25T20:53:01.573Z,56.27
2022-07-25T20:55:30.435Z,57.42
2022-07-25T20:58:00.287Z,55.00
2022-07-25T21:00:28.899Z,57.43
2022-07-25T21:02:56.967Z,58.62
2022-07-25T21:05:27.334Z,58.40
2022-07-25T21:07:54.643Z,60.99
2022-07-25T21:10:22.050Z,60.07
2022-07-25T21:12:49.374Z,64.47
2022-07-25T21:15:16.771Z,66.83
2022-07-25T21:17:44.158Z,68.79
2022-07-25T21:20:13.095Z,70.64
2022-07-25T21:22:40.762Z,70.62
2022-07-25T21:25:09.261Z,72.22
2022-07-25T21:27:39.883Z,73.27
2022-07-25T21:30:08.416Z,73.41
2022-07-25T21:32:36.125Z,73.80
2022-07-25T21:35:04.958Z,74.44
2022-07-25T21:37:32.394Z,75.14
2022-07-25T21:39:59.848Z,74.90
2022-07-25T21:42:27.049Z,76.04
2022-07-25T21:44:56.498Z,76.37
2022-07-25T21:47:23.674Z,75.32
2022-07-25T21:50:09.333Z,75.27
2022-07-25T21:52:36.613Z,73.19
2022-07-25T21:55:04.454Z,69.75
2022-07-25T21:57:32.078Z,66.10
2022-07-25T21:59:59.334Z,64.39
2022-07-25T22:02:29.515Z,63.07
2022-07-25T22:04:56.697Z,63.38
2022-07-25T22:07:26.706Z,63.56
2022-07-25T22:09:54.093Z,63.58
2022-07-25T22:12:21.446Z,64.92
2022-07-25T22:14:48.662Z,65.83
2022-07-25T22:17:16.024Z,67.52
2022-07-25T22:19:43.374Z,67.36
2022-07-25T22:22:10.589Z,67.10
2022-07-25T22:24:39.207Z,67.84
2022-07-25T22:27:09.252Z,68.68
2022-07-25T22:29:36.562Z,69.80
2022-07-25T22:32:03.993Z,72.71
2022-07-25T22:34:31.306Z,77.10
2022-07-25T22:36:58.704Z,78.71
2022-07-25T22:39:25.926Z,76.45
2022-07-25T22:41:53.198Z,77.49
2022-07-25T22:44:20.410Z,75.00
2022-07-25T22:46:47.678Z,73.42
2022-07-25T22:49:15.103Z,70.66
2022-07-25T22:51:42.354Z,70.68
2022-07-25T22:54:09.744Z,68.47
2022-07-25T22:56:37.230Z,65.09
2022-07-25T22:59:04.660Z,63.21
2022-07-25T23:01:33.285Z,60.57
2022-07-25T23:04:00.660Z,58.37
2022-07-25T23:06:27.904Z,58.10
2022-07-25T23:08:57.251Z,59.03
2022-07-25T23:11:24.588Z,59.43
2022-07-25T23:13:51.768Z,60.66
2022-07-25T23:16:20.834Z,61.37
2022-07-25T23:18:48.215Z,61.09
2022-07-25T23:21:15.573Z,61.35
2022-07-25T23:23:42.902Z,61.78
2022-07-25T23:26:10.180Z,63.62
2022-07-25T23:28:37.461Z,64.30
2022-07-25T23:31:04.892Z,65.90
2022-07-25T23:33:32.252Z,68.56
2022-07-25T23:35:59.434Z,69.08
2022-07-25T23:38:26.640Z,70.69
2022-07-25T23:40:56.748Z,70.52
2022-07-25T23:43:48.800Z,72.20
2022-07-25T23:46:11.669Z,74.03
2022-07-25T23:48:38.940Z,76.65
2022-07-25T23:51:06.793Z,75.65
2022-07-25T23:53:35.709Z,75.43
2022-07-25T23:56:02.984Z,76.81
2022-07-25T23:58:30.236Z,75.08
